Time;durP1;ratioP1;P1;durP2;ratioP2;P2;SDS_P1;SDS_P2;PMS_P1;PMS_P2;Temp;Humidity;BMP_temperature;BMP_pressure;BME280_temperature;BME280_humidity;BME280_pressure;Samples;Min_cycle;Max_cycle;Signal;HPM_P1;HPM_P2
2022/06/13 00:01:11;;;;;;;7.03;2.70;;;19.40;99.90;;;;;;5074867;28;20270;-61
2022/06/13 00:03:39;;;;;;;4.35;2.63;;;19.40;99.90;;;;;;5074779;28;20209;-61
2022/06/13 00:06:06;;;;;;;4.93;2.70;;;19.30;99.90;;;;;;5073988;28;20212;-61
2022/06/13 00:08:34;;;;;;;6.63;2.60;;;19.30;99.90;;;;;;5073820;28;20233;-61
2022/06/13 00:11:01;;;;;;;5.05;2.70;;;19.40;99.90;;;;;;5074201;28;20205;-61
2022/06/13 00:13:28;;;;;;;4.05;2.50;;;19.40;99.90;;;;;;5073916;28;20242;-62
2022/06/13 00:15:55;;;;;;;5.30;2.63;;;19.40;99.90;;;;;;5073998;28;20217;-62
2022/06/13 00:18:22;;;;;;;6.45;3.13;;;19.40;99.90;;;;;;5073852;28;20258;-61
2022/06/13 00:20:48;;;;;;;9.40;2.58;;;19.50;99.90;;;;;;5073958;28;20703;-62
2022/06/13 00:23:15;;;;;;;5.07;2.90;;;19.30;99.90;;;;;;5074143;28;20207;-61
2022/06/13 00:25:43;;;;;;;4.35;2.30;;;19.20;99.90;;;;;;5073534;28;20205;-61
2022/06/13 00:28:10;;;;;;;6.03;2.58;;;19.20;99.90;;;;;;5073998;28;20248;-63
2022/06/13 00:30:38;;;;;;;5.25;3.00;;;19.20;99.90;;;;;;5074473;28;20209;-61
2022/06/13 00:33:05;;;;;;;6.15;2.92;;;19.30;99.90;;;;;;5074584;28;20208;-61
2022/06/13 00:35:31;;;;;;;4.75;3.00;;;19.40;99.90;;;;;;5073807;28;20204;-61
2022/06/13 00:37:58;;;;;;;4.32;3.25;;;19.40;99.90;;;;;;5074340;28;20653;-60
2022/06/13 00:40:25;;;;;;;4.57;2.60;;;19.50;99.90;;;;;;5074720;28;20213;-61
2022/06/13 00:42:53;;;;;;;6.38;2.85;;;19.50;99.90;;;;;;5074292;28;20209;-61
2022/06/13 00:45:23;;;;;;;4.88;2.72;;;19.50;99.90;;;;;;5073961;28;20231;-61
2022/06/13 00:47:52;;;;;;;3.55;2.53;;;19.50;99.90;;;;;;5073544;28;20225;-61
2022/06/13 00:50:24;;;;;;;4.53;2.30;;;19.50;99.90;;;;;;5073415;28;20208;-61
2022/06/13 00:52:55;;;;;;;3.13;2.20;;;19.50;99.90;;;;;;5073797;28;20209;-61
2022/06/13 00:55:28;;;;;;;3.72;2.30;;;19.50;99.90;;;;;;5073259;28;20216;-61
2022/06/13 00:57:57;;;;;;;5.75;2.42;;;19.60;99.90;;;;;;5073896;28;20221;-61
2022/06/13 01:00:24;;;;;;;4.88;2.50;;;19.60;99.90;;;;;;5073995;28;20204;-61
2022/06/13 01:02:51;;;;;;;6.22;2.40;;;19.60;99.90;;;;;;5073917;28;20216;-61
2022/06/13 01:05:24;;;;;;;4.78;2.50;;;19.50;99.90;;;;;;5073543;28;20215;-62
2022/06/13 01:07:51;;;;;;;5.72;2.47;;;19.50;99.90;;;;;;5073700;28;20232;-62
2022/06/13 01:13:06;;;;;;;5.53;2.25;;;19.40;99.90;;;;;;5073806;28;20691;-61
2022/06/13 01:16:01;;;;;;;4.10;2.20;;;19.30;99.90;;;;;;5073742;28;20567;-61
2022/06/13 01:18:53;;;;;;;6.28;2.53;;;19.30;99.90;;;;;;5065305;28;20641;-61
2022/06/13 01:21:31;;;;;;;4.93;2.80;;;19.20;99.90;;;;;;5073618;28;20231;-61
2022/06/13 01:24:28;;;;;;;5.80;2.90;;;19.20;99.90;;;;;;5072898;28;20676;-61
2022/06/13 01:27:13;;;;;;;5.25;2.50;;;19.20;99.90;;;;;;5072545;28;20231;-61
2022/06/13 01:30:16;;;;;;;4.05;2.22;;;19.20;99.90;;;;;;5073274;28;20213;-61
2022/06/13 01:32:54;;;;;;;4.57;2.75;;;19.20;99.90;;;;;;5025638;28;20208;-60
2022/06/13 01:35:35;;;;;;;5.13;2.30;;;19.10;99.90;;;;;;5072856;28;20208;-61
2022/06/13 01:38:11;;;;;;;4.53;2.55;;;19.10;99.90;;;;;;5073502;28;20773;-61
2022/06/13 01:40:59;;;;;;;4.00;2.80;;;19.20;99.90;;;;;;5073248;28;20412;-62
2022/06/13 01:43:43;;;;;;;4.53;2.38;;;19.20;99.90;;;;;;5073754;28;20276;-61
2022/06/13 01:46:17;;;;;;;4.93;2.60;;;19.20;99.90;;;;;;5073461;28;20304;-60
2022/06/13 01:48:54;;;;;;;7.55;2.67;;;19.10;99.90;;;;;;5076619;28;20229;-60
2022/06/13 01:51:27;;;;;;;3.80;2.60;;;19.00;99.90;;;;;;5078181;28;20217;-63
2022/06/13 01:53:59;;;;;;;4.18;2.47;;;19.00;99.90;;;;;;5077591;28;20211;-59
2022/06/13 01:56:30;;;;;;;4.30;2.90;;;18.90;99.90;;;;;;5077267;28;20592;-59
2022/06/13 01:59:03;;;;;;;6.70;3.03;;;18.80;99.90;;;;;;5077972;28;20229;-61
2022/06/13 02:01:35;;;;;;;4.68;2.70;;;18.60;99.90;;;;;;5077556;28;20216;-60
2022/06/13 02:04:09;;;;;;;4.82;2.65;;;18.50;99.90;;;;;;5076065;28;20240;-61
2022/06/13 02:06:41;;;;;;;3.25;2.85;;;18.40;99.90;;;;;;5076953;28;20215;-60
2022/06/13 02:09:12;;;;;;;5.70;2.95;;;18.40;99.90;;;;;;5077055;28;20224;-61
2022/06/13 02:11:45;;;;;;;4.60;2.97;;;18.40;99.90;;;;;;5077402;28;20212;-61
2022/06/13 02:14:15;;;;;;;3.85;2.85;;;18.50;99.90;;;;;;5076811;28;20243;-60
2022/06/13 02:16:46;;;;;;;5.15;2.95;;;18.50;99.90;;;;;;5076857;28;20660;-60
2022/06/13 02:19:19;;;;;;;5.00;2.80;;;18.50;99.90;;;;;;5077990;28;20572;-60
2022/06/13 02:21:51;;;;;;;6.65;2.67;;;18.60;99.90;;;;;;5077848;28;20209;-60
2022/06/13 02:24:22;;;;;;;4.20;2.63;;;18.80;99.90;;;;;;5077707;28;20209;-61
2022/06/13 02:26:52;;;;;;;4.15;2.63;;;18.80;99.90;;;;;;5076690;28;20307;-61
2022/06/13 02:29:23;;;;;;;6.78;2.90;;;19.00;99.90;;;;;;5076798;28;20229;-61
2022/06/13 02:31:55;;;;;;;3.70;2.70;;;19.00;99.90;;;;;;5076806;28;20208;-60
2022/06/13 02:34:26;;;;;;;5.00;2.85;;;19.00;99.90;;;;;;5076294;28;20685;-60
2022/06/13 02:36:58;;;;;;;4.75;2.70;;;19.00;99.90;;;;;;5076009;28;20539;-61
2022/06/13 02:39:29;;;;;;;3.22;2.70;;;19.00;99.90;;;;;;5075962;28;20237;-60
2022/06/13 02:42:00;;;;;;;7.82;2.85;;;19.00;99.90;;;;;;5075914;28;20629;-60
2022/06/13 02:44:33;;;;;;;7.28;2.65;;;19.00;99.90;;;;;;5076421;28;20236;-60
2022/06/13 02:47:05;;;;;;;4.68;2.72;;;19.00;99.90;;;;;;5076641;28;20286;-60
2022/06/13 02:49:37;;;;;;;4.30;2.60;;;19.00;99.90;;;;;;5076110;28;20228;-60
2022/06/13 02:52:10;;;;;;;5.65;2.65;;;18.90;99.90;;;;;;5075733;28;20216;-60
2022/06/13 02:54:46;;;;;;;3.42;2.60;;;18.90;99.90;;;;;;5076739;28;20220;-60
2022/06/13 02:57:29;;;;;;;3.92;2.60;;;18.90;99.90;;;;;;5076824;28;20224;-60
2022/06/13 03:00:07;;;;;;;4.25;2.58;;;18.80;99.90;;;;;;5076408;28;20258;-60
2022/06/13 03:02:43;;;;;;;6.80;3.38;;;18.80;99.90;;;;;;5076887;28;20258;-61
2022/06/13 03:05:28;;;;;;;4.10;2.75;;;18.80;99.90;;;;;;5076630;28;20629;-60
2022/06/13 03:08:00;;;;;;;3.80;2.67;;;18.70;99.90;;;;;;5076233;28;20236;-60
2022/06/13 03:10:37;;;;;;;4.85;3.17;;;18.60;99.90;;;;;;5075722;28;20720;-60
2022/06/13 03:13:09;;;;;;;5.50;3.70;;;18.50;99.90;;;;;;5076153;28;20216;-60
2022/06/13 03:15:48;;;;;;;5.28;3.10;;;18.40;99.90;;;;;;5075237;28;20216;-60
2022/06/13 03:18:20;;;;;;;4.88;2.38;;;18.40;99.90;;;;;;5075671;28;20225;-61
2022/06/13 03:20:53;;;;;;;6.50;3.22;;;18.30;99.90;;;;;;5075609;28;20627;-61
2022/06/13 03:23:26;;;;;;;7.15;4.03;;;18.20;99.90;;;;;;5075507;28;20684;-61
2022/06/13 03:25:58;;;;;;;7.72;3.50;;;18.20;99.90;;;;;;5075260;28;20212;-61
2022/06/13 03:28:29;;;;;;;5.80;3.05;;;18.10;99.90;;;;;;5075196;28;20220;-61
2022/06/13 03:30:59;;;;;;;4.38;2.70;;;18.00;99.90;;;;;;5075182;28;20212;-61
2022/06/13 03:33:43;;;;;;;4.47;3.05;;;17.90;99.90;;;;;;5075003;28;20211;-61
2022/06/13 03:36:17;;;;;;;7.93;3.45;;;18.00;99.90;;;;;;5075425;28;20232;-61
2022/06/13 03:38:49;;;;;;;8.02;4.07;;;17.90;99.90;;;;;;5075123;28;20221;-61
2022/06/13 03:41:19;;;;;;;8.32;3.45;;;17.90;99.90;;;;;;5074952;28;20201;-60
2022/06/13 03:43:50;;;;;;;6.13;3.03;;;17.90;99.90;;;;;;5075160;28;20201;-62
2022/06/13 03:46:20;;;;;;;5.63;3.20;;;17.90;99.90;;;;;;5074479;28;20573;-60
2022/06/13 03:48:57;;;;;;;6.43;3.65;;;17.80;99.90;;;;;;5074674;28;20270;-60
2022/06/13 03:51:28;;;;;;;8.38;4.50;;;17.90;99.90;;;;;;5074701;28;20201;-61
2022/06/13 03:54:00;;;;;;;6.30;3.40;;;17.80;99.90;;;;;;5075760;28;20204;-61
2022/06/13 03:56:32;;;;;;;7.30;3.25;;;17.80;99.90;;;;;;5074998;28;20208;-60
2022/06/13 03:59:04;;;;;;;6.47;3.30;;;17.80;99.90;;;;;;5075358;28;20225;-60
2022/06/13 04:01:36;;;;;;;8.68;4.30;;;17.80;99.90;;;;;;5075496;28;20209;-61
2022/06/13 04:04:03;;;;;;;8.00;3.72;;;17.80;99.90;;;;;;5075280;28;20236;-60
2022/06/13 04:06:35;;;;;;;6.45;2.90;;;17.80;99.90;;;;;;5074275;28;20205;-61
2022/06/13 04:09:04;;;;;;;8.38;4.45;;;17.90;99.90;;;;;;5074420;28;20235;-61
2022/06/13 04:11:40;;;;;;;7.95;3.40;;;17.90;99.90;;;;;;5073980;28;20227;-62
2022/06/13 04:14:14;;;;;;;6.35;3.17;;;17.80;99.90;;;;;;5074715;28;20204;-61
2022/06/13 04:16:50;;;;;;;6.53;3.40;;;17.90;99.90;;;;;;5074026;28;20204;-61
2022/06/13 04:19:32;;;;;;;6.80;3.10;;;17.90;99.90;;;;;;5074560;28;20205;-61
2022/06/13 04:22:12;;;;;;;6.97;3.30;;;17.90;99.90;;;;;;5074490;28;20201;-61
2022/06/13 04:24:58;;;;;;;8.55;3.10;;;18.00;99.90;;;;;;5073964;28;20211;-61
2022/06/13 04:27:30;;;;;;;6.78;3.17;;;18.00;99.90;;;;;;5073899;28;20258;-61
2022/06/13 04:30:09;;;;;;;5.32;2.45;;;18.10;99.90;;;;;;5073543;28;20232;-60
2022/06/13 04:32:41;;;;;;;8.40;2.70;;;18.30;99.90;;;;;;5073825;28;20644;-61
2022/06/13 04:35:09;;;;;;;4.22;2.58;;;18.40;99.90;;;;;;5074070;28;20212;-61
2022/06/13 04:37:39;;;;;;;7.47;2.95;;;18.40;99.90;;;;;;5073812;28;20225;-61
2022/06/13 04:40:14;;;;;;;6.18;2.97;;;18.40;99.90;;;;;;5074194;28;20197;-61
2022/06/13 04:42:42;;;;;;;7.22;2.80;;;18.50;99.90;;;;;;5074121;28;20212;-61
2022/06/13 04:45:21;;;;;;;7.43;2.60;;;18.70;99.90;;;;;;5073807;28;20208;-61
2022/06/13 04:47:49;;;;;;;6.40;2.40;;;19.30;99.90;;;;;;5073793;28;20243;-61
2022/06/13 04:50:19;;;;;;;6.63;2.00;;;20.70;99.90;;;;;;5073678;28;20229;-61
2022/06/13 04:52:51;;;;;;;4.22;2.10;;;22.30;99.90;;;;;;5074037;28;20201;-61
2022/06/13 04:55:24;;;;;;;5.15;2.00;;;23.90;99.90;;;;;;5073997;28;20204;-61
2022/06/13 04:57:51;;;;;;;8.20;2.30;;;25.40;99.90;;;;;;5073677;28;20319;-61
2022/06/13 05:00:19;;;;;;;6.80;2.15;;;26.80;99.90;;;;;;5073030;28;20209;-61
2022/06/13 05:02:49;;;;;;;8.95;2.20;;;28.10;99.90;;;;;;5073561;28;20205;-61
2022/06/13 05:05:36;;;;;;;6.00;2.17;;;29.20;99.90;;;;;;5073282;28;20200;-61
2022/06/13 05:08:12;;;;;;;4.07;1.92;;;30.00;98.80;;;;;;5074097;28;20236;-61
2022/06/13 05:10:42;;;;;;;4.30;2.20;;;30.90;95.80;;;;;;5073766;28;20232;-61
2022/06/13 05:13:09;;;;;;;8.63;4.07;;;31.40;92.40;;;;;;5073925;28;20212;-61
2022/06/13 05:15:36;;;;;;;6.88;2.00;;;32.00;91.10;;;;;;5073217;28;20211;-61
2022/06/13 05:18:30;;;;;;;4.72;2.08;;;32.70;87.30;;;;;;5073485;28;20224;-61
2022/06/13 05:21:09;;;;;;;5.07;2.05;;;32.70;83.70;;;;;;5074244;28;20212;-61
2022/06/13 05:24:02;;;;;;;6.32;2.15;;;32.70;80.50;;;;;;5073500;28;20571;-61
2022/06/13 05:26:29;;;;;;;5.47;2.35;;;32.50;80.90;;;;;;5073761;28;20209;-61
2022/06/13 05:28:59;;;;;;;6.05;1.88;;;32.90;78.10;;;;;;5073474;28;20328;-61
2022/06/13 05:31:28;;;;;;;5.05;1.90;;;33.50;75.20;;;;;;5073757;28;20205;-61
2022/06/13 05:33:55;;;;;;;6.78;1.90;;;34.00;73.20;;;;;;5073802;28;20212;-61
2022/06/13 05:36:24;;;;;;;7.32;2.30;;;34.50;69.30;;;;;;5072901;28;20212;-61
2022/06/13 05:38:55;;;;;;;4.50;1.77;;;34.30;69.50;;;;;;5073683;28;20228;-62
2022/06/13 05:41:22;;;;;;;4.95;2.08;;;34.00;65.60;;;;;;5073377;28;20559;-61
2022/06/13 05:43:49;;;;;;;6.70;2.20;;;33.10;68.90;;;;;;5073490;28;20204;-61
2022/06/13 05:46:18;;;;;;;5.70;2.30;;;32.80;66.10;;;;;;5073012;28;20209;-62
2022/06/13 05:48:44;;;;;;;4.80;1.80;;;32.80;68.70;;;;;;5073169;28;20251;-61
2022/06/13 05:51:11;;;;;;;4.65;1.80;;;32.80;68.70;;;;;;5072146;28;20208;-59
2022/06/13 05:53:38;;;;;;;4.50;1.95;;;33.20;67.40;;;;;;5072392;28;20217;-60
2022/06/13 05:56:06;;;;;;;4.72;1.92;;;33.50;66.40;;;;;;5072381;28;20615;-61
2022/06/13 05:58:33;;;;;;;8.02;2.20;;;34.30;63.70;;;;;;5072469;28;20236;-59
2022/06/13 06:01:01;;;;;;;7.07;1.98;;;35.30;61.70;;;;;;5072365;28;20208;-59
2022/06/13 06:03:28;;;;;;;5.50;2.05;;;36.10;58.60;;;;;;5071852;28;20247;-59
2022/06/13 06:05:56;;;;;;;4.85;1.85;;;36.40;57.00;;;;;;5072015;28;20212;-60
2022/06/13 06:08:27;;;;;;;5.88;1.90;;;36.30;57.20;;;;;;5071679;28;20724;-59
2022/06/13 06:10:56;;;;;;;4.93;1.80;;;36.50;55.50;;;;;;5071897;28;20225;-60
2022/06/13 06:13:24;;;;;;;6.30;2.17;;;36.30;55.00;;;;;;5071823;28;20397;-59
2022/06/13 06:15:52;;;;;;;5.68;2.05;;;35.80;54.80;;;;;;5071437;28;20231;-60
2022/06/13 06:18:20;;;;;;;4.57;2.00;;;35.60;57.20;;;;;;5071542;28;20231;-59
2022/06/13 06:20:47;;;;;;;9.18;2.60;;;36.20;56.30;;;;;;5072213;28;20270;-59
2022/06/13 06:23:14;;;;;;;5.70;2.20;;;37.30;54.00;;;;;;5071940;28;20703;-59
2022/06/13 06:25:42;;;;;;;9.43;2.53;;;38.00;51.90;;;;;;5072120;28;20213;-59
2022/06/13 06:28:10;;;;;;;5.78;2.08;;;38.30;50.10;;;;;;5072084;28;20507;-59
2022/06/13 06:30:39;;;;;;;9.80;2.10;;;38.40;49.90;;;;;;5071821;28;20224;-59
2022/06/13 06:33:06;;;;;;;4.95;1.88;;;38.40;49.30;;;;;;5072538;28;20209;-59
2022/06/13 06:35:35;;;;;;;7.40;2.38;;;38.30;47.80;;;;;;5075670;28;20672;-59
2022/06/13 06:38:02;;;;;;;5.65;1.90;;;38.20;47.30;;;;;;5075878;28;20232;-59
2022/06/13 06:40:29;;;;;;;7.38;2.13;;;37.70;47.30;;;;;;5076178;28;20200;-59
2022/06/13 06:42:56;;;;;;;6.72;1.88;;;37.70;47.10;;;;;;5075767;28;20205;-59
2022/06/13 06:45:24;;;;;;;5.65;1.80;;;37.50;47.50;;;;;;5075692;28;20209;-59
2022/06/13 06:47:53;;;;;;;4.32;2.00;;;36.50;48.20;;;;;;5076033;28;20252;-59
2022/06/13 06:50:21;;;;;;;5.60;2.20;;;36.50;50.20;;;;;;5075443;28;20235;-60
2022/06/13 06:52:49;;;;;;;5.68;1.95;;;37.70;47.00;;;;;;5075746;28;20588;-60
2022/06/13 07:00:50;;;;;;;5.97;1.98;;;37.10;46.50;;;;;;5075106;28;20665;-59
2022/06/13 07:03:19;;;;;;;7.28;2.15;;;37.90;46.30;;;;;;5074991;28;20204;-59
2022/06/13 07:05:46;;;;;;;5.47;2.00;;;38.20;46.00;;;;;;5074614;28;20209;-59
2022/06/13 07:08:14;;;;;;;4.00;2.13;;;38.60;44.50;;;;;;5074655;28;20673;-59
2022/06/13 07:10:45;;;;;;;8.18;1.85;;;39.30;44.50;;;;;;5074620;28;20599;-59
2022/06/13 07:13:12;;;;;;;3.90;1.70;;;40.00;42.10;;;;;;5075344;28;20227;-59
2022/06/13 07:15:39;;;;;;;5.50;1.98;;;40.00;42.60;;;;;;5075275;28;20211;-59
2022/06/13 07:18:07;;;;;;;7.22;1.90;;;39.90;42.60;;;;;;5074814;28;20231;-59
2022/06/13 07:20:35;;;;;;;7.68;1.90;;;39.60;42.10;;;;;;5074541;28;20307;-59
2022/06/13 07:23:02;;;;;;;4.57;1.80;;;38.20;45.20;;;;;;5074871;28;20212;-60
2022/06/13 07:25:30;;;;;;;5.20;2.25;;;37.40;45.20;;;;;;5074626;28;20205;-59
2022/06/13 07:27:58;;;;;;;3.58;1.63;;;37.30;46.20;;;;;;5074845;28;20231;-59
2022/06/13 07:30:26;;;;;;;5.47;1.92;;;37.70;43.40;;;;;;5074734;28;20302;-59
2022/06/13 07:32:54;;;;;;;4.93;1.80;;;37.60;43.20;;;;;;5074735;28;20217;-59
2022/06/13 07:35:24;;;;;;;3.40;1.55;;;37.40;42.80;;;;;;5075166;28;20590;-59
2022/06/13 07:40:37;;;;;;;6.28;1.80;;;36.30;43.90;;;;;;5075284;28;20204;-59
2022/06/13 07:43:06;;;;;;;4.47;2.00;;;35.70;43.70;;;;;;5075351;28;20254;-59
2022/06/13 07:45:39;;;;;;;4.95;1.88;;;34.90;45.70;;;;;;5073469;28;20209;-58
2022/06/13 07:48:07;;;;;;;6.10;1.95;;;35.10;45.00;;;;;;5075453;28;20235;-59
2022/06/13 07:50:34;;;;;;;5.45;2.00;;;35.00;45.90;;;;;;5075275;28;20224;-59
2022/06/13 07:53:02;;;;;;;5.72;1.90;;;35.40;45.20;;;;;;5075175;28;20205;-59
2022/06/13 07:55:31;;;;;;;4.10;1.52;;;36.70;44.00;;;;;;5074256;28;20217;-60
2022/06/13 07:57:57;;;;;;;5.05;1.65;;;37.70;42.30;;;;;;5074043;28;20244;-59
2022/06/13 08:00:27;;;;;;;7.38;1.90;;;37.80;41.40;;;;;;5073838;28;20204;-59
2022/06/13 08:02:55;;;;;;;5.50;1.77;;;36.70;42.80;;;;;;5074166;28;20212;-60
2022/06/13 08:05:21;;;;;;;12.27;2.10;;;35.60;44.30;;;;;;5073664;28;20212;-60
2022/06/13 08:07:48;;;;;;;5.07;1.88;;;35.50;44.30;;;;;;5073294;28;20235;-60
2022/06/13 08:10:17;;;;;;;6.20;1.80;;;35.60;44.50;;;;;;5073619;28;20252;-60
2022/06/13 08:12:45;;;;;;;3.30;1.80;;;35.60;44.40;;;;;;5073618;28;20227;-60
2022/06/13 08:15:14;;;;;;;7.70;2.00;;;35.60;43.70;;;;;;5073961;28;20205;-58
2022/06/13 08:17:42;;;;;;;6.07;1.80;;;35.10;44.70;;;;;;5073456;28;20228;-59
2022/06/13 08:20:10;;;;;;;8.73;2.13;;;33.80;46.90;;;;;;5073648;28;20201;-59
2022/06/13 08:22:42;;;;;;;4.93;2.03;;;33.70;46.90;;;;;;5073768;28;20215;-59
2022/06/13 08:25:09;;;;;;;4.40;2.13;;;33.10;47.10;;;;;;5073344;28;20621;-59
2022/06/13 08:27:37;;;;;;;6.93;1.90;;;33.30;47.20;;;;;;5073018;28;20628;-59
2022/06/13 08:30:05;;;;;;;4.47;2.13;;;34.60;45.60;;;;;;5073563;28;20225;-59
2022/06/13 08:32:32;;;;;;;4.55;1.90;;;35.10;45.40;;;;;;5073570;28;20220;-59
2022/06/13 08:34:58;;;;;;;4.35;2.10;;;35.10;45.90;;;;;;5073580;28;20205;-59
2022/06/13 08:37:25;;;;;;;6.68;2.10;;;35.10;46.70;;;;;;5073324;28;20224;-59
2022/06/13 08:39:52;;;;;;;4.03;1.73;;;34.80;47.20;;;;;;5073429;28;20208;-59
2022/06/13 08:42:25;;;;;;;5.07;2.13;;;34.90;46.30;;;;;;5075709;28;20212;-59
2022/06/13 08:45:03;;;;;;;5.80;2.10;;;34.60;46.70;;;;;;5074174;28;20213;-59
2022/06/13 08:47:42;;;;;;;4.60;1.95;;;34.00;48.30;;;;;;5073309;28;20228;-59
2022/06/13 08:50:20;;;;;;;5.43;2.25;;;33.50;48.40;;;;;;5073316;28;20231;-59
2022/06/13 08:52:52;;;;;;;7.18;2.20;;;33.40;48.80;;;;;;5073588;28;20247;-59
2022/06/13 08:55:28;;;;;;;6.50;2.10;;;32.50;50.20;;;;;;5073232;28;20216;-59
2022/06/13 08:58:04;;;;;;;8.82;2.35;;;31.90;51.70;;;;;;5072684;28;20220;-59
2022/06/13 09:00:34;;;;;;;5.50;2.03;;;31.00;52.60;;;;;;5072859;28;20204;-59
2022/06/13 09:03:06;;;;;;;4.47;2.10;;;30.20;53.10;;;;;;5073246;28;20234;-60
2022/06/13 09:05:39;;;;;;;6.18;2.20;;;29.40;54.10;;;;;;5073086;28;20198;-59
2022/06/13 09:08:12;;;;;;;4.90;2.42;;;28.50;55.50;;;;;;5073022;28;20239;-58
2022/06/13 09:10:45;;;;;;;5.43;2.13;;;27.50;56.60;;;;;;5072717;28;20229;-58
2022/06/13 09:13:17;;;;;;;7.72;2.28;;;26.40;58.80;;;;;;5072709;28;20303;-58
2022/06/13 09:15:49;;;;;;;7.10;2.47;;;25.90;60.60;;;;;;5072700;28;20592;-59
2022/06/13 09:18:22;;;;;;;5.85;2.00;;;25.30;63.10;;;;;;5072707;28;20221;-59
2022/06/13 09:20:54;;;;;;;6.20;2.35;;;24.80;64.20;;;;;;5072841;28;20292;-58
2022/06/13 09:23:32;;;;;;;9.98;2.50;;;24.30;66.20;;;;;;5072761;28;20241;-59
2022/06/13 09:26:12;;;;;;;8.48;2.50;;;24.30;66.60;;;;;;5072553;28;20212;-59
2022/06/13 09:28:47;;;;;;;6.38;2.13;;;24.50;66.10;;;;;;5072666;28;20601;-59
2022/06/13 09:31:24;;;;;;;5.68;2.28;;;25.00;64.70;;;;;;5072392;28;20251;-59
2022/06/13 09:33:54;;;;;;;9.90;2.72;;;25.40;64.50;;;;;;5072435;28;20216;-59
2022/06/13 09:36:26;;;;;;;8.30;2.50;;;25.70;64.30;;;;;;5070459;28;20444;-58
2022/06/13 09:38:59;;;;;;;6.70;2.05;;;25.60;64.30;;;;;;5071654;28;20250;-59
2022/06/13 09:41:40;;;;;;;6.15;2.25;;;25.50;62.40;;;;;;5071749;28;20458;-58
2022/06/13 09:44:18;;;;;;;7.03;2.63;;;25.30;63.60;;;;;;5072334;28;20193;-65
2022/06/13 09:46:55;;;;;;;3.53;1.90;;;25.60;64.60;;;;;;5072660;28;20215;-60
2022/06/13 09:49:36;;;;;;;4.35;2.28;;;25.90;62.00;;;;;;5072953;28;20208;-62
2022/06/13 09:52:10;;;;;;;5.35;2.20;;;25.90;63.30;;;;;;5072604;28;20221;-61
2022/06/13 09:54:43;;;;;;;6.95;2.42;;;26.00;63.90;;;;;;5071930;28;20706;-61
2022/06/13 09:57:18;;;;;;;7.80;2.22;;;26.10;63.50;;;;;;5072002;28;20236;-60
2022/06/13 10:00:03;;;;;;;4.57;1.90;;;26.00;63.90;;;;;;5072278;28;20224;-60
2022/06/13 10:02:40;;;;;;;6.97;2.20;;;26.10;63.20;;;;;;5071852;28;20204;-59
2022/06/13 10:05:19;;;;;;;6.00;2.00;;;25.80;61.20;;;;;;5069041;28;20212;-61
2022/06/13 10:07:56;;;;;;;5.53;1.92;;;25.70;61.80;;;;;;5071551;28;20240;-61
2022/06/13 10:10:31;;;;;;;6.90;2.00;;;25.80;61.80;;;;;;5076464;28;20221;-64
2022/06/13 10:13:14;;;;;;;5.03;2.05;;;25.90;60.60;;;;;;5076365;28;20676;-57
2022/06/13 10:15:48;;;;;;;6.38;2.20;;;26.00;62.10;;;;;;5075791;28;20208;-58
2022/06/13 10:18:35;;;;;;;7.05;2.47;;;26.20;61.90;;;;;;5075832;28;20278;-58
2022/06/13 10:21:10;;;;;;;4.97;1.80;;;26.60;61.10;;;;;;5075651;28;20201;-57
2022/06/13 10:23:43;;;;;;;4.88;1.77;;;26.80;59.50;;;;;;5075684;28;20208;-58
2022/06/13 10:26:20;;;;;;;5.43;1.73;;;27.00;57.00;;;;;;5075324;28;20205;-58
2022/06/13 10:29:12;;;;;;;4.25;1.58;;;26.90;56.40;;;;;;5075541;28;20231;-58
2022/06/13 10:31:54;;;;;;;9.10;1.77;;;26.60;57.50;;;;;;5075288;28;20232;-57
2022/06/13 10:34:34;;;;;;;4.93;1.92;;;26.20;56.90;;;;;;5075282;28;20204;-58
2022/06/13 10:37:13;;;;;;;4.97;2.00;;;26.00;59.50;;;;;;5074936;28;20731;-57
2022/06/13 10:39:39;;;;;;;5.32;1.95;;;25.80;58.20;;;;;;5075313;28;20215;-58
2022/06/13 10:42:13;;;;;;;6.72;1.98;;;25.90;58.10;;;;;;5075537;28;20648;-57
2022/06/13 10:44:41;;;;;;;6.15;2.15;;;25.90;58.40;;;;;;5075095;28;20212;-58
2022/06/13 10:47:18;;;;;;;5.07;2.13;;;26.00;58.50;;;;;;5074868;28;20704;-58
2022/06/13 10:49:52;;;;;;;3.40;1.70;;;26.30;57.90;;;;;;5075370;28;20400;-56
2022/06/13 10:52:22;;;;;;;4.75;1.63;;;26.50;56.00;;;;;;5075317;28;20666;-56
2022/06/13 10:54:53;;;;;;;6.75;1.83;;;26.60;56.50;;;;;;5076330;28;20209;-56
2022/06/13 10:57:26;;;;;;;5.88;1.90;;;26.80;56.70;;;;;;5075480;28;20580;-57
2022/06/13 11:00:13;;;;;;;5.97;2.13;;;26.70;57.90;;;;;;5076359;28;20216;-57
2022/06/13 11:02:40;;;;;;;4.97;2.05;;;26.60;58.00;;;;;;5075852;28;20201;-58
2022/06/13 11:05:10;;;;;;;4.90;1.95;;;26.70;56.70;;;;;;5075728;28;20205;-58
2022/06/13 11:07:45;;;;;;;5.68;2.00;;;27.00;57.50;;;;;;5093107;22;20229;-58
2022/06/13 11:10:25;;;;;;;4.70;1.88;;;27.10;56.00;;;;;;5064574;28;20197;-58
2022/06/13 11:12:52;;;;;;;6.47;1.75;;;26.80;54.10;;;;;;5079556;28;20216;-58
2022/06/13 11:23:53;;;;;;;5.55;1.77;;;25.70;56.90;;;;;;5074253;28;20778;-59
2022/06/13 11:29:13;;;;;;;3.67;1.63;;;25.80;58.70;;;;;;5074259;28;20363;-59
2022/06/13 11:31:49;;;;;;;6.18;2.00;;;26.20;57.00;;;;;;5073940;28;20235;-59
2022/06/13 11:34:29;;;;;;;5.60;1.70;;;26.30;54.70;;;;;;5073559;28;20668;-59
2022/06/13 11:37:02;;;;;;;5.28;1.65;;;26.40;56.00;;;;;;5073267;28;20212;-59
2022/06/13 11:39:38;;;;;;;3.67;1.50;;;26.30;56.00;;;;;;5074037;28;20223;-59
2022/06/13 11:42:17;;;;;;;3.90;1.58;;;26.30;56.40;;;;;;5073727;28;20270;-59
2022/06/13 11:44:47;;;;;;;3.38;1.67;;;26.20;55.80;;;;;;5073633;28;20205;-59
2022/06/13 11:47:15;;;;;;;5.13;1.70;;;26.10;56.10;;;;;;5073121;28;20212;-58
2022/06/13 11:49:44;;;;;;;6.45;1.88;;;25.90;56.50;;;;;;5073663;28;20290;-59
2022/06/13 11:55:24;;;;;;;3.55;1.60;;;25.80;55.90;;;;;;5073590;28;20212;-59
2022/06/13 11:57:54;;;;;;;3.42;1.52;;;25.90;57.10;;;;;;5073195;28;20286;-63
2022/06/13 12:00:28;;;;;;;4.50;1.40;;;26.10;56.70;;;;;;5073538;28;20297;-64
2022/06/13 12:03:04;;;;;;;4.93;1.50;;;26.40;56.40;;;;;;5073289;28;20265;-62
2022/06/13 12:05:34;;;;;;;4.55;1.55;;;26.80;55.50;;;;;;5073137;28;20228;-60
2022/06/13 12:08:04;;;;;;;4.85;1.70;;;27.20;54.50;;;;;;5072645;28;20754;-59
2022/06/13 12:10:33;;;;;;;6.63;1.73;;;27.30;53.30;;;;;;5073074;28;20212;-59
2022/06/13 12:13:00;;;;;;;6.03;3.17;;;27.20;53.30;;;;;;5068202;28;20537;-62
2022/06/13 12:15:36;;;;;;;2.45;1.23;;;27.30;53.40;;;;;;5055906;28;20202;-60
2022/06/13 12:18:10;;;;;;;2.55;1.50;;;27.30;54.00;;;;;;5051765;28;20294;-60
2022/06/13 12:20:45;;;;;;;5.70;1.40;;;27.40;52.40;;;;;;5051784;28;20300;-64
2022/06/13 12:23:21;;;;;;;3.20;1.55;;;27.40;52.20;;;;;;5051782;28;20204;-62
2022/06/13 12:25:53;;;;;;;4.18;1.88;;;27.50;52.10;;;;;;5052054;28;20267;-60
2022/06/13 12:28:22;;;;;;;18.42;15.60;;;27.40;53.20;;;;;;5051517;28;20271;-64
2022/06/13 12:30:55;;;;;;;3.42;1.20;;;27.50;52.30;;;;;;5051347;28;20697;-63
2022/06/13 12:33:35;;;;;;;3.45;1.58;;;27.60;51.20;;;;;;5044297;28;20634;-61
2022/06/13 12:36:20;;;;;;;4.10;1.67;;;27.80;50.90;;;;;;5051123;28;20201;-62
2022/06/13 12:39:01;;;;;;;4.03;1.48;;;28.10;51.30;;;;;;5051539;28;20233;-62
2022/06/13 12:41:41;;;;;;;5.72;1.80;;;28.40;51.00;;;;;;5050185;28;20208;-60
2022/06/13 12:44:23;;;;;;;10.88;3.95;;;28.50;50.00;;;;;;5051949;28;20209;-63
2022/06/13 12:47:18;;;;;;;4.15;1.38;;;28.30;50.80;;;;;;5051259;28;20205;-65
2022/06/13 12:50:19;;;;;;;3.60;1.60;;;28.20;50.90;;;;;;5030887;28;20210;-64
2022/06/13 12:52:59;;;;;;;3.67;1.55;;;27.80;51.30;;;;;;5051473;28;20237;-67
2022/06/13 12:55:37;;;;;;;4.18;1.45;;;27.30;52.30;;;;;;5051360;28;20205;-64
2022/06/13 12:58:35;;;;;;;3.78;1.50;;;26.80;51.70;;;;;;5050844;28;20316;-62
2022/06/13 13:01:07;;;;;;;4.20;1.55;;;26.50;52.40;;;;;;5049587;28;20205;-64
2022/06/13 13:04:12;;;;;;;5.70;1.83;;;26.10;53.40;;;;;;5050050;28;20681;-60
2022/06/13 13:06:50;;;;;;;6.57;3.83;;;25.80;54.10;;;;;;5051617;28;20672;-61
2022/06/13 13:09:30;;;;;;;4.80;1.75;;;25.90;53.40;;;;;;5051908;28;20237;-61
2022/06/13 13:12:20;;;;;;;5.68;1.52;;;25.90;54.50;;;;;;5052097;28;20324;-61
2022/06/13 13:14:55;;;;;;;3.92;1.60;;;25.70;55.10;;;;;;5051865;28;20263;-61
2022/06/13 13:17:37;;;;;;;3.35;1.60;;;25.50;54.00;;;;;;5051864;28;20228;-60
2022/06/13 13:20:11;;;;;;;3.53;1.50;;;25.60;54.70;;;;;;5051903;28;20300;-61
2022/06/13 13:22:48;;;;;;;5.55;1.50;;;25.60;54.60;;;;;;5052179;28;20216;-60
2022/06/13 13:25:24;;;;;;;2.55;1.40;;;25.70;53.50;;;;;;5051859;28;20270;-61
2022/06/13 13:28:11;;;;;;;3.17;1.45;;;25.80;53.30;;;;;;5051713;28;20224;-61
2022/06/13 13:30:43;;;;;;;4.97;1.40;;;25.90;54.20;;;;;;5051862;28;20604;-61
2022/06/13 13:33:23;;;;;;;3.65;1.60;;;26.30;53.70;;;;;;5051621;28;20697;-61
2022/06/13 13:35:54;;;;;;;4.13;1.48;;;26.50;53.40;;;;;;5051613;28;20189;-60
2022/06/13 13:38:27;;;;;;;3.20;1.58;;;26.60;53.90;;;;;;5051623;28;20233;-61
2022/06/13 13:40:58;;;;;;;3.80;1.50;;;26.70;52.30;;;;;;5051822;28;20201;-61